createdAt,value
2017-01-09T10:49:14.106Z,345
2017-01-09T10:59:28.025Z,340
2017-01-09T11:09:41.573Z,285
2017-01-09T11:19:56.098Z,270
2017-01-09T11:30:10.085Z,245
2017-01-09T11:40:24.905Z,255
2017-01-09T11:50:38.818Z,325
2017-01-09T12:00:52.918Z,435
2017-01-09T12:11:07.295Z,325
2017-01-09T12:21:21.518Z,240
2017-01-09T12:31:34.691Z,275
2017-01-09T12:41:48.803Z,260
2017-01-09T12:52:03.678Z,255
2017-01-09T13:02:18.476Z,220
2017-01-09T13:12:32.189Z,375
2017-01-09T13:22:45.832Z,155
2017-01-09T13:35:20.676Z,135
2017-01-09T13:43:15.014Z,195
2017-01-09T13:53:28.486Z,165
2017-01-09T14:03:42.822Z,130
2017-01-09T14:13:56.546Z,145
2017-01-09T14:24:10.123Z,155
2017-01-09T14:34:24.493Z,100
2017-01-09T14:44:38.737Z,70
2017-01-09T14:54:52.650Z,65
2017-01-09T15:05:05.943Z,60
2017-01-09T15:15:20.379Z,35
2017-01-09T15:25:34.372Z,25
2017-01-09T15:35:47.622Z,10
2017-01-09T15:46:01.647Z,5
2017-01-09T15:56:15.787Z,0
2017-01-09T16:06:29.150Z,0
2017-01-09T16:16:43.112Z,0
2017-01-09T16:26:58.154Z,0
2017-01-09T16:37:12.721Z,0
2017-01-09T16:47:26.512Z,0
2017-01-09T16:57:41.133Z,0
2017-01-09T17:07:56.069Z,0
2017-01-09T17:18:10.130Z,0
2017-01-09T17:28:23.348Z,0
2017-01-09T17:38:38.120Z,0
2017-01-09T17:48:52.822Z,0
2017-01-09T17:59:06.484Z,0
2017-01-09T18:09:21.428Z,0
2017-01-09T18:19:35.376Z,0
2017-01-09T18:29:50.376Z,0
2017-01-09T18:40:03.821Z,0
2017-01-09T18:50:17.102Z,0
2017-01-09T19:00:31.270Z,0
2017-01-09T19:10:44.295Z,0
2017-01-09T19:20:59.223Z,0
2017-01-09T19:31:12.815Z,0
2017-01-09T19:41:26.950Z,0
2017-01-09T19:51:41.107Z,0
2017-01-09T20:01:55.152Z,0
2017-01-09T20:12:08.806Z,0
2017-01-09T20:22:23.191Z,0
2017-01-09T20:32:37.500Z,0
2017-01-09T20:42:51.970Z,0
2017-01-09T20:53:06.089Z,0
2017-01-09T21:03:19.742Z,0
2017-01-09T21:13:34.146Z,0
2017-01-09T21:23:47.552Z,0
2017-01-09T21:34:01.670Z,0
2017-01-09T21:44:16.197Z,0
2017-01-09T21:54:30.296Z,0
2017-01-09T22:04:44.722Z,0
2017-01-09T22:14:59.809Z,0
2017-01-09T22:25:13.901Z,0
2017-01-09T22:35:27.460Z,0
2017-01-09T22:45:41.537Z,0
2017-01-09T22:55:56.326Z,0
2017-01-09T23:06:10.234Z,0
2017-01-09T23:16:23.501Z,0
2017-01-09T23:26:37.048Z,0
2017-01-09T23:36:51.104Z,0
2017-01-09T23:47:05.851Z,0
2017-01-09T23:57:19.564Z,0
